Time;durP1;ratioP1;P1;durP2;ratioP2;P2;SDS_P1;SDS_P2;PMS_P1;PMS_P2;Temp;Humidity;BMP_temperature;BMP_pressure;BME280_temperature;BME280_humidity;BME280_pressure;Samples;Min_cycle;Max_cycle;Signal;HPM_P1;HPM_P2
2024/01/26 00:00:07;;;;;;;24.77;4.82;;;3.10;99.90;;;;;;4902120;29;20028;-80
2024/01/26 00:02:37;;;;;;;19.77;5.15;;;3.20;99.90;;;;;;4921428;29;20036;-80
2024/01/26 00:05:03;;;;;;;22.67;4.95;;;3.20;99.90;;;;;;4904451;29;20032;-81
2024/01/26 00:07:29;;;;;;;23.30;4.20;;;3.30;99.90;;;;;;4888005;29;20040;-81
2024/01/26 00:09:55;;;;;;;12.32;4.28;;;3.30;99.90;;;;;;4901317;29;20044;-80
2024/01/26 00:12:21;;;;;;;26.70;5.90;;;3.30;99.90;;;;;;4903500;29;20131;-81
2024/01/26 00:14:46;;;;;;;20.10;4.53;;;3.30;99.90;;;;;;4872287;29;20444;-81
2024/01/26 00:17:12;;;;;;;21.27;4.55;;;3.30;99.90;;;;;;4920212;29;20489;-79
2024/01/26 00:19:38;;;;;;;12.98;4.82;;;3.30;99.90;;;;;;4921639;29;20123;-80
2024/01/26 00:22:04;;;;;;;25.63;4.53;;;3.40;99.90;;;;;;4905135;29;20091;-80
2024/01/26 00:24:30;;;;;;;16.80;4.00;;;3.40;99.90;;;;;;4918514;29;20039;-80
2024/01/26 00:26:55;;;;;;;13.45;3.92;;;3.40;99.90;;;;;;4904604;29;20075;-81
2024/01/26 00:29:21;;;;;;;12.85;4.25;;;3.40;99.90;;;;;;4919045;29;20094;-80
2024/01/26 00:31:47;;;;;;;15.32;4.53;;;3.40;99.90;;;;;;4904624;29;20032;-80
2024/01/26 00:34:12;;;;;;;14.68;4.20;;;3.40;99.90;;;;;;4899712;29;20028;-80
2024/01/26 00:36:38;;;;;;;17.58;4.78;;;3.40;99.90;;;;;;4901998;29;20492;-80
2024/01/26 00:39:04;;;;;;;12.98;4.00;;;3.40;99.90;;;;;;4918708;29;20040;-80
2024/01/26 00:41:31;;;;;;;14.23;4.53;;;3.40;99.90;;;;;;4902425;29;20200;-81
2024/01/26 00:43:57;;;;;;;16.73;4.25;;;3.40;99.90;;;;;;4902105;29;20405;-79
2024/01/26 00:46:23;;;;;;;12.75;4.40;;;3.40;99.90;;;;;;4902885;29;20036;-81
2024/01/26 00:48:49;;;;;;;18.25;5.85;;;3.40;99.90;;;;;;4920319;29;20035;-81
2024/01/26 00:51:14;;;;;;;14.55;4.03;;;3.40;99.90;;;;;;4922977;29;20395;-81
2024/01/26 00:53:40;;;;;;;18.30;4.28;;;3.50;99.90;;;;;;4902292;29;20052;-80
2024/01/26 00:56:06;;;;;;;16.35;4.40;;;3.50;99.90;;;;;;4902383;29;20036;-81
2024/01/26 00:58:32;;;;;;;18.73;4.40;;;3.50;99.90;;;;;;4901656;29;20033;-79
2024/01/26 01:00:57;;;;;;;14.48;5.22;;;3.50;99.90;;;;;;4919875;29;20481;-81
2024/01/26 01:03:23;;;;;;;15.80;4.28;;;3.50;99.90;;;;;;4886704;29;20043;-79
2024/01/26 01:05:49;;;;;;;15.48;4.30;;;3.50;99.90;;;;;;4898076;29;20401;-80
2024/01/26 01:08:15;;;;;;;18.38;5.20;;;3.40;99.90;;;;;;4904851;29;20041;-79
2024/01/26 01:10:41;;;;;;;19.17;4.28;;;3.50;99.90;;;;;;4920853;29;20043;-80
2024/01/26 01:13:10;;;;;;;16.25;4.32;;;3.50;99.90;;;;;;4883409;29;20040;-79
2024/01/26 01:15:37;;;;;;;18.40;4.53;;;3.50;99.90;;;;;;4902333;29;20056;-79
2024/01/26 01:18:03;;;;;;;25.10;5.05;;;3.50;99.90;;;;;;4918428;29;20060;-81
2024/01/26 01:20:29;;;;;;;15.50;5.40;;;3.60;99.90;;;;;;4905391;29;20035;-79
2024/01/26 01:22:57;;;;;;;18.20;5.47;;;3.60;99.90;;;;;;4904789;29;20067;-81
2024/01/26 01:25:23;;;;;;;27.17;5.45;;;3.60;99.90;;;;;;4900049;29;20505;-81
2024/01/26 01:27:49;;;;;;;28.10;6.60;;;3.70;99.90;;;;;;4900652;29;20127;-80
2024/01/26 01:30:14;;;;;;;19.40;5.50;;;3.70;99.90;;;;;;4918859;29;20032;-81
2024/01/26 01:32:40;;;;;;;23.45;7.38;;;3.70;99.90;;;;;;4902904;29;20028;-79
2024/01/26 01:35:06;;;;;;;25.42;7.10;;;3.70;99.90;;;;;;4889805;29;20059;-81
2024/01/26 01:37:32;;;;;;;19.50;6.90;;;3.70;99.90;;;;;;4902340;29;20083;-80
2024/01/26 01:39:57;;;;;;;25.67;8.35;;;3.70;99.90;;;;;;4919062;29;20032;-80
2024/01/26 01:42:23;;;;;;;28.08;7.97;;;3.70;99.90;;;;;;4901596;29;20428;-80
2024/01/26 01:44:49;;;;;;;27.17;7.90;;;3.70;99.90;;;;;;4902023;29;20036;-80
2024/01/26 01:47:15;;;;;;;24.98;8.20;;;3.60;99.90;;;;;;4918668;29;20374;-80
2024/01/26 01:49:43;;;;;;;20.90;8.60;;;3.50;99.90;;;;;;4918835;29;20028;-80
2024/01/26 01:52:13;;;;;;;24.08;7.72;;;3.50;99.90;;;;;;4901509;29;20044;-80
2024/01/26 01:54:40;;;;;;;18.13;7.00;;;3.40;99.90;;;;;;4918881;29;20051;-79
2024/01/26 01:57:06;;;;;;;19.17;6.53;;;3.30;99.90;;;;;;4918827;29;20040;-79
2024/01/26 01:59:33;;;;;;;19.23;6.28;;;3.30;99.90;;;;;;4916242;29;20131;-80
2024/01/26 02:01:59;;;;;;;23.50;7.80;;;3.30;99.90;;;;;;4915962;29;20078;-79
2024/01/26 02:04:25;;;;;;;27.63;8.27;;;3.30;99.90;;;;;;4916702;29;20072;-80
2024/01/26 02:07:00;;;;;;;20.13;6.88;;;3.30;99.90;;;;;;4917299;29;20080;-80
2024/01/26 02:09:27;;;;;;;15.10;7.10;;;3.30;99.90;;;;;;4901311;29;20111;-80
2024/01/26 02:11:53;;;;;;;18.25;6.65;;;3.30;99.90;;;;;;4917914;29;20160;-80
2024/01/26 02:14:19;;;;;;;25.05;7.75;;;3.40;99.90;;;;;;4917960;29;20072;-80
2024/01/26 02:16:57;;;;;;;21.08;6.38;;;3.40;99.90;;;;;;4900983;29;20042;-80
2024/01/26 02:19:24;;;;;;;31.20;6.93;;;3.40;99.90;;;;;;4916646;29;20032;-80
2024/01/26 02:21:49;;;;;;;19.45;6.10;;;3.40;99.90;;;;;;4901134;29;20108;-80
2024/01/26 02:24:16;;;;;;;18.58;6.07;;;3.40;99.90;;;;;;4916603;29;20067;-80
2024/01/26 02:26:41;;;;;;;22.25;5.78;;;3.40;99.90;;;;;;4916283;29;20028;-80
2024/01/26 02:29:07;;;;;;;24.60;6.03;;;3.50;99.90;;;;;;4916608;29;20100;-80
2024/01/26 02:31:33;;;;;;;14.65;5.68;;;3.50;99.90;;;;;;4917076;29;20028;-81
2024/01/26 02:33:59;;;;;;;20.52;6.05;;;3.50;99.90;;;;;;4900201;29;20055;-81
2024/01/26 02:36:28;;;;;;;25.60;5.78;;;3.50;99.90;;;;;;4917331;29;20032;-80
2024/01/26 02:38:55;;;;;;;23.92;5.45;;;3.60;99.90;;;;;;4916676;29;20040;-81
2024/01/26 02:41:21;;;;;;;22.15;5.63;;;3.60;99.90;;;;;;4915141;29;20103;-80
2024/01/26 02:43:46;;;;;;;16.05;5.47;;;3.60;99.90;;;;;;4917140;29;20067;-81
2024/01/26 02:46:12;;;;;;;23.60;5.45;;;3.60;99.90;;;;;;4899842;29;20080;-81
2024/01/26 02:48:38;;;;;;;20.10;5.57;;;3.60;99.90;;;;;;4916575;29;20115;-81
2024/01/26 02:51:05;;;;;;;25.25;6.70;;;3.70;99.90;;;;;;4899327;29;20032;-81
2024/01/26 02:53:31;;;;;;;22.65;5.20;;;3.70;99.90;;;;;;4914736;29;20059;-81
2024/01/26 02:55:57;;;;;;;21.15;6.07;;;3.80;99.90;;;;;;4916178;29;20122;-81
2024/01/26 02:58:23;;;;;;;16.95;5.07;;;3.80;99.90;;;;;;4915212;29;20404;-81
2024/01/26 03:00:49;;;;;;;18.35;5.30;;;3.80;99.90;;;;;;4913448;29;20025;-81
2024/01/26 03:03:15;;;;;;;19.02;4.93;;;3.90;99.90;;;;;;4899301;29;20038;-81
2024/01/26 03:05:41;;;;;;;16.17;5.25;;;3.90;99.90;;;;;;4916611;29;20040;-80
2024/01/26 03:08:07;;;;;;;25.67;6.10;;;3.90;99.90;;;;;;4899754;29;20032;-81
2024/01/26 03:10:33;;;;;;;17.02;5.00;;;3.80;99.90;;;;;;4916758;29;20110;-82
2024/01/26 03:12:59;;;;;;;16.20;4.50;;;3.80;99.90;;;;;;4925730;29;20038;-80
2024/01/26 03:15:25;;;;;;;14.20;4.45;;;3.80;99.90;;;;;;4909456;29;20107;-80
2024/01/26 03:17:51;;;;;;;22.02;4.65;;;3.80;99.90;;;;;;4913409;29;20103;-80
2024/01/26 03:20:17;;;;;;;10.98;4.47;;;3.70;99.90;;;;;;4932749;29;20051;-80
2024/01/26 03:22:44;;;;;;;17.08;5.03;;;3.70;99.90;;;;;;4930469;29;20036;-80
2024/01/26 03:25:10;;;;;;;13.93;4.13;;;3.80;99.90;;;;;;4928877;29;20096;-81
2024/01/26 03:27:35;;;;;;;13.75;3.53;;;3.80;99.90;;;;;;4918242;29;20071;-80
2024/01/26 03:30:02;;;;;;;7.82;3.53;;;3.80;99.90;;;;;;4921444;29;20036;-80
2024/01/26 03:32:27;;;;;;;9.65;4.10;;;3.80;99.90;;;;;;4932761;29;20042;-80
2024/01/26 03:34:53;;;;;;;7.18;3.88;;;3.90;99.90;;;;;;4918796;29;20056;-80
2024/01/26 03:37:19;;;;;;;11.73;4.50;;;4.00;99.90;;;;;;4914556;29;20023;-81
2024/01/26 03:39:45;;;;;;;10.23;4.10;;;4.00;99.90;;;;;;4934560;29;20117;-79
2024/01/26 03:42:11;;;;;;;11.68;4.50;;;4.00;99.90;;;;;;4930764;29;20033;-81
2024/01/26 03:44:38;;;;;;;5.55;3.47;;;4.10;99.90;;;;;;4923283;29;20036;-80
2024/01/26 03:47:05;;;;;;;10.40;3.95;;;4.10;99.90;;;;;;4916758;29;20032;-80
2024/01/26 03:49:30;;;;;;;7.50;4.53;;;4.20;99.90;;;;;;4933483;29;20028;-80
2024/01/26 03:51:56;;;;;;;8.73;4.05;;;4.20;99.90;;;;;;4923779;29;20075;-80
2024/01/26 03:54:22;;;;;;;10.32;4.50;;;4.20;99.90;;;;;;4896480;29;20107;-78
2024/01/26 03:56:48;;;;;;;8.50;4.43;;;4.20;99.90;;;;;;4920227;29;20039;-80
2024/01/26 03:59:13;;;;;;;9.02;5.00;;;4.20;99.90;;;;;;4902683;29;20044;-81
2024/01/26 04:01:39;;;;;;;12.45;5.50;;;4.30;99.90;;;;;;4930068;29;20040;-80
2024/01/26 04:04:06;;;;;;;9.38;5.07;;;4.30;99.90;;;;;;4932425;29;20037;-79
2024/01/26 04:06:31;;;;;;;10.43;4.75;;;4.30;99.90;;;;;;4933044;29;20035;-80
2024/01/26 04:08:59;;;;;;;9.13;5.03;;;4.40;99.90;;;;;;4918728;29;20040;-80
2024/01/26 04:11:27;;;;;;;8.85;4.72;;;4.40;99.90;;;;;;4915350;29;20032;-79
2024/01/26 04:13:53;;;;;;;10.65;4.65;;;4.40;99.90;;;;;;4928489;29;20044;-80
2024/01/26 04:16:19;;;;;;;8.57;4.75;;;4.40;99.90;;;;;;4917961;29;20040;-80
2024/01/26 04:18:46;;;;;;;13.98;5.15;;;4.40;99.90;;;;;;4916719;29;20032;-80
2024/01/26 04:21:12;;;;;;;12.38;5.25;;;4.40;99.90;;;;;;4935348;29;20024;-80
2024/01/26 04:23:38;;;;;;;10.88;5.32;;;4.40;99.90;;;;;;4931153;29;20091;-79
2024/01/26 04:26:05;;;;;;;10.80;5.20;;;4.50;99.90;;;;;;4920038;29;20051;-81
2024/01/26 04:28:31;;;;;;;14.95;5.70;;;4.50;99.90;;;;;;4917672;29;20036;-80
2024/01/26 04:30:56;;;;;;;8.65;4.72;;;4.50;99.90;;;;;;4928298;29;20645;-80
2024/01/26 04:33:22;;;;;;;10.30;5.25;;;4.50;99.90;;;;;;4899072;29;20043;-80
2024/01/26 04:35:48;;;;;;;8.02;4.75;;;4.50;99.90;;;;;;4920705;29;20040;-80
2024/01/26 04:38:14;;;;;;;11.18;5.43;;;4.50;99.90;;;;;;4929153;29;20036;-80
2024/01/26 04:40:40;;;;;;;10.30;5.25;;;4.50;99.90;;;;;;4910228;29;20454;-80
2024/01/26 04:43:06;;;;;;;10.88;5.00;;;4.50;99.90;;;;;;4930739;29;20050;-80
2024/01/26 04:45:32;;;;;;;12.07;5.88;;;4.60;99.90;;;;;;4923311;29;20036;-80
2024/01/26 04:47:58;;;;;;;9.98;5.78;;;4.60;99.90;;;;;;4922721;29;20028;-80
2024/01/26 04:50:26;;;;;;;13.73;5.82;;;4.60;99.90;;;;;;4912798;29;20216;-80
2024/01/26 04:52:52;;;;;;;10.15;5.55;;;4.70;99.90;;;;;;4911350;29;20059;-80
2024/01/26 04:55:30;;;;;;;10.13;5.45;;;4.60;99.90;;;;;;4932723;29;20052;-79
2024/01/26 04:57:56;;;;;;;13.63;5.93;;;4.60;99.90;;;;;;4916595;29;20028;-80
2024/01/26 05:00:22;;;;;;;10.25;5.70;;;4.60;99.90;;;;;;4926460;29;20043;-80
2024/01/26 05:02:49;;;;;;;15.48;6.68;;;4.70;99.90;;;;;;4929489;29;20043;-80
2024/01/26 05:05:14;;;;;;;13.30;5.75;;;4.70;99.90;;;;;;4929056;29;20039;-80
2024/01/26 05:07:41;;;;;;;11.65;5.57;;;4.70;99.90;;;;;;4926074;29;20067;-80
2024/01/26 05:10:07;;;;;;;8.85;5.25;;;4.70;99.90;;;;;;4931512;29;20040;-79
2024/01/26 05:12:33;;;;;;;9.02;5.32;;;4.70;99.90;;;;;;4934442;29;20028;-80
2024/01/26 05:14:59;;;;;;;11.02;5.18;;;4.70;99.90;;;;;;4928317;29;20039;-80
2024/01/26 05:17:25;;;;;;;9.05;5.00;;;4.70;99.90;;;;;;4900414;29;20040;-80
2024/01/26 05:19:51;;;;;;;8.02;4.85;;;4.70;99.90;;;;;;4920141;29;20032;-80
2024/01/26 05:22:17;;;;;;;7.95;5.18;;;4.70;99.90;;;;;;4927470;29;20428;-80
2024/01/26 05:24:43;;;;;;;10.43;5.88;;;4.80;99.90;;;;;;4925423;29;20473;-80
2024/01/26 05:27:09;;;;;;;10.00;5.63;;;4.80;99.90;;;;;;4931285;29;20042;-80
2024/01/26 05:29:35;;;;;;;9.40;5.80;;;4.80;99.90;;;;;;4915810;29;20040;-81
2024/01/26 05:32:01;;;;;;;12.07;6.05;;;4.80;99.90;;;;;;4928329;29;20032;-80
2024/01/26 05:34:27;;;;;;;11.60;6.20;;;4.80;99.90;;;;;;4925677;29;20068;-80
2024/01/26 05:36:53;;;;;;;8.75;5.95;;;4.80;99.90;;;;;;4899741;29;20039;-80
2024/01/26 05:39:19;;;;;;;9.05;5.47;;;4.90;99.90;;;;;;4932308;29;20109;-80
2024/01/26 05:41:45;;;;;;;9.27;5.40;;;4.80;99.90;;;;;;4913420;29;20115;-80
2024/01/26 05:44:10;;;;;;;10.65;6.55;;;4.80;99.90;;;;;;4918332;29;20031;-81
2024/01/26 05:46:36;;;;;;;14.52;7.78;;;4.80;99.90;;;;;;4935318;29;20036;-80
2024/01/26 05:49:02;;;;;;;14.02;8.73;;;4.90;99.90;;;;;;4933242;29;20032;-81
2024/01/26 05:51:28;;;;;;;10.80;7.88;;;4.90;99.90;;;;;;4930600;29;20024;-81
2024/01/26 05:54:12;;;;;;;9.85;6.60;;;4.90;99.90;;;;;;4918367;29;20051;-81
2024/01/26 05:56:41;;;;;;;9.70;5.35;;;4.90;99.90;;;;;;4917212;29;20036;-81
2024/01/26 05:59:07;;;;;;;9.13;5.50;;;4.90;99.90;;;;;;4936474;29;20028;-81
2024/01/26 06:01:34;;;;;;;6.50;4.75;;;4.90;99.90;;;;;;4933484;29;20047;-81
2024/01/26 06:04:01;;;;;;;7.68;5.38;;;5.00;99.90;;;;;;4917689;29;20393;-81
2024/01/26 06:06:27;;;;;;;9.20;6.05;;;4.90;99.90;;;;;;4917629;29;20032;-80
2024/01/26 06:08:53;;;;;;;11.07;6.03;;;4.90;99.90;;;;;;4910385;29;20032;-81
2024/01/26 06:11:20;;;;;;;10.77;6.70;;;4.90;99.90;;;;;;4934278;29;20028;-80
2024/01/26 06:13:46;;;;;;;13.18;9.07;;;5.00;99.90;;;;;;4931672;29;20032;-80
2024/01/26 06:16:13;;;;;;;12.85;8.32;;;5.00;99.90;;;;;;4931618;29;20043;-80
2024/01/26 06:18:40;;;;;;;10.20;6.28;;;5.00;99.90;;;;;;4900125;29;20054;-80
2024/01/26 06:21:05;;;;;;;7.30;5.47;;;5.00;99.90;;;;;;4926070;29;20048;-79
2024/01/26 06:23:31;;;;;;;10.52;5.30;;;5.00;99.90;;;;;;4922110;29;20599;-81
2024/01/26 06:25:57;;;;;;;6.80;5.10;;;5.00;99.90;;;;;;4922212;29;20035;-80
2024/01/26 06:28:23;;;;;;;6.60;4.68;;;5.10;99.90;;;;;;4926351;29;20075;-80
2024/01/26 06:30:48;;;;;;;9.10;4.70;;;5.10;99.90;;;;;;4928260;29;20048;-81
2024/01/26 06:33:14;;;;;;;6.65;4.20;;;5.20;99.90;;;;;;4931267;29;20171;-80
2024/01/26 06:35:40;;;;;;;6.60;4.65;;;5.20;99.90;;;;;;4932955;29;20035;-81
2024/01/26 06:38:06;;;;;;;6.25;4.35;;;5.30;99.90;;;;;;4929813;29;20060;-81
2024/01/26 06:40:31;;;;;;;6.03;4.25;;;5.30;99.90;;;;;;4932004;29;21389;-80
2024/01/26 06:42:57;;;;;;;6.03;4.05;;;5.40;99.90;;;;;;4934154;29;20420;-80
2024/01/26 06:45:23;;;;;;;9.45;4.78;;;5.40;99.90;;;;;;4929327;29;20036;-80
2024/01/26 06:47:48;;;;;;;8.07;4.70;;;5.50;99.90;;;;;;4930845;29;20109;-81
2024/01/26 06:50:14;;;;;;;6.28;4.07;;;5.50;99.90;;;;;;4932092;29;20066;-81
2024/01/26 06:52:40;;;;;;;7.55;4.18;;;5.50;99.90;;;;;;4891466;29;20037;-80
2024/01/26 06:55:06;;;;;;;29.00;5.65;;;5.50;99.90;;;;;;4930294;29;20028;-80
2024/01/26 06:57:31;;;;;;;48.03;6.75;;;5.50;99.90;;;;;;4913653;29;20060;-80
2024/01/26 06:59:57;;;;;;;118.07;10.65;;;5.50;99.90;;;;;;4913271;29;20072;-80
2024/01/26 07:02:23;;;;;;;286.35;17.58;;;5.60;99.90;;;;;;4926758;29;20031;-80
2024/01/26 07:04:49;;;;;;;48.25;6.20;;;5.50;99.90;;;;;;4920444;29;20032;-80
2024/01/26 07:07:14;;;;;;;66.70;6.32;;;5.50;99.90;;;;;;4930747;29;20055;-81
2024/01/26 07:09:40;;;;;;;453.48;24.75;;;5.60;99.90;;;;;;4881481;29;20489;-81
2024/01/26 07:12:24;;;;;;;56.15;7.03;;;5.60;99.90;;;;;;4929402;29;20040;-81
2024/01/26 07:14:50;;;;;;;12.68;4.40;;;5.50;99.90;;;;;;4925087;29;20036;-81
2024/01/26 07:17:16;;;;;;;50.85;6.88;;;5.50;99.90;;;;;;4929604;29;20032;-80
2024/01/26 07:19:41;;;;;;;49.55;7.43;;;5.60;99.90;;;;;;4931500;29;20039;-81
2024/01/26 07:22:07;;;;;;;59.78;6.78;;;5.60;99.90;;;;;;4896333;29;20044;-80
2024/01/26 07:24:33;;;;;;;21.23;4.78;;;5.60;99.90;;;;;;4910826;29;20054;-80
2024/01/26 07:26:58;;;;;;;21.15;5.13;;;5.60;99.90;;;;;;4932786;29;20073;-80
2024/01/26 07:29:24;;;;;;;160.90;11.90;;;5.70;99.90;;;;;;4911598;29;20068;-80
2024/01/26 07:31:50;;;;;;;129.07;10.07;;;5.70;99.90;;;;;;4894959;29;20036;-81
2024/01/26 07:34:16;;;;;;;18.92;5.70;;;5.80;99.90;;;;;;4930970;29;20086;-80
2024/01/26 07:36:42;;;;;;;68.05;7.28;;;5.80;99.90;;;;;;4927177;29;20028;-81
2024/01/26 07:39:08;;;;;;;226.60;15.27;;;5.80;99.90;;;;;;4902115;29;20042;-80
2024/01/26 07:41:33;;;;;;;134.10;10.82;;;5.90;99.90;;;;;;4929453;29;20285;-81
2024/01/26 07:44:02;;;;;;;174.82;13.95;;;5.90;99.90;;;;;;4911481;29;20040;-80
2024/01/26 07:46:27;;;;;;;27.33;7.03;;;6.00;99.90;;;;;;4897791;29;20036;-80
2024/01/26 07:48:54;;;;;;;11.73;6.32;;;6.10;99.90;;;;;;4929059;29;20367;-80
2024/01/26 07:51:19;;;;;;;28.27;7.20;;;6.10;99.90;;;;;;4934935;29;20064;-80
2024/01/26 07:53:46;;;;;;;19.25;7.97;;;6.10;99.90;;;;;;4927791;29;20032;-80
2024/01/26 07:56:11;;;;;;;83.38;9.38;;;6.20;99.90;;;;;;4932222;29;20044;-80
2024/01/26 07:58:38;;;;;;;25.10;7.75;;;6.20;99.90;;;;;;4913984;29;20028;-80
2024/01/26 08:01:05;;;;;;;148.95;13.45;;;6.20;99.90;;;;;;4916562;29;20103;-81
2024/01/26 08:03:31;;;;;;;12.23;7.05;;;6.30;99.90;;;;;;4913883;29;20036;-81
2024/01/26 08:05:57;;;;;;;293.60;18.77;;;6.30;99.90;;;;;;4915644;29;20055;-80
2024/01/26 08:08:23;;;;;;;37.97;8.07;;;6.30;99.90;;;;;;4880863;29;20126;-80
2024/01/26 08:10:49;;;;;;;16.70;6.95;;;6.40;99.90;;;;;;4912318;29;20137;-80
2024/01/26 08:13:14;;;;;;;140.30;12.70;;;6.40;99.90;;;;;;4900902;29;20062;-81
2024/01/26 08:15:40;;;;;;;19.27;8.15;;;6.50;99.90;;;;;;4904657;29;20963;-80
2024/01/26 08:18:06;;;;;;;12.02;7.40;;;6.50;99.90;;;;;;4917030;29;20029;-80
2024/01/26 08:20:32;;;;;;;13.45;7.00;;;6.60;99.90;;;;;;4869153;29;20023;-80
2024/01/26 08:22:57;;;;;;;25.85;7.28;;;6.60;99.90;;;;;;4893032;29;20036;-81
2024/01/26 08:25:24;;;;;;;129.73;11.98;;;6.60;99.90;;;;;;4923209;29;20489;-81
2024/01/26 08:27:51;;;;;;;10.30;6.55;;;6.60;99.90;;;;;;4903184;29;20031;-80
2024/01/26 08:30:17;;;;;;;30.60;7.68;;;6.60;99.90;;;;;;4924233;29;20114;-81
2024/01/26 08:32:45;;;;;;;10.68;6.50;;;6.70;99.90;;;;;;4910171;29;20477;-80
2024/01/26 08:35:11;;;;;;;65.40;9.27;;;6.70;99.90;;;;;;4913606;29;20119;-81
2024/01/26 08:37:38;;;;;;;11.05;7.13;;;6.70;99.90;;;;;;4904986;29;20036;-80
2024/01/26 08:40:06;;;;;;;25.98;7.18;;;6.80;99.90;;;;;;4913350;29;20710;-80
2024/01/26 08:42:33;;;;;;;9.95;6.18;;;6.80;99.90;;;;;;4900647;29;20046;-80
2024/01/26 08:44:59;;;;;;;8.68;5.32;;;6.80;99.90;;;;;;4911601;29;20510;-81
2024/01/26 08:47:24;;;;;;;10.82;5.97;;;6.90;99.90;;;;;;4899918;29;20024;-82
2024/01/26 08:49:50;;;;;;;9.48;6.00;;;6.90;99.90;;;;;;4913250;29;20404;-81
2024/01/26 08:52:16;;;;;;;418.35;21.40;;;6.90;99.90;;;;;;4907516;29;20032;-81
2024/01/26 08:54:42;;;;;;;9.43;5.43;;;6.90;99.90;;;;;;4892157;29;20036;-81
2024/01/26 08:57:08;;;;;;;77.78;9.55;;;6.90;99.90;;;;;;4904421;29;20132;-81
2024/01/26 08:59:34;;;;;;;169.20;13.23;;;7.00;99.90;;;;;;4923140;29;20044;-80
2024/01/26 09:02:01;;;;;;;65.97;7.50;;;7.00;99.90;;;;;;4896834;29;20028;-80
2024/01/26 09:04:26;;;;;;;6.75;4.68;;;6.90;99.90;;;;;;4908068;29;20036;-80
2024/01/26 09:06:52;;;;;;;7.50;4.82;;;6.90;99.90;;;;;;4895565;29;20031;-81
2024/01/26 09:09:18;;;;;;;10.23;5.00;;;7.00;99.90;;;;;;4919630;29;20548;-81
2024/01/26 09:11:44;;;;;;;137.25;10.95;;;7.00;99.90;;;;;;4893899;29;20052;-81
2024/01/26 09:14:09;;;;;;;7.70;4.75;;;7.10;99.90;;;;;;4915868;29;20056;-81
2024/01/26 09:16:35;;;;;;;7.97;4.82;;;7.00;99.90;;;;;;4886481;29;20046;-81
2024/01/26 09:19:01;;;;;;;134.65;11.00;;;7.10;99.90;;;;;;4902691;29;20044;-82
2024/01/26 09:21:27;;;;;;;17.27;5.15;;;7.10;99.90;;;;;;4916056;29;20028;-80
2024/01/26 09:23:52;;;;;;;8.18;4.97;;;7.10;99.90;;;;;;4913060;29;20028;-80
2024/01/26 09:26:18;;;;;;;7.90;4.55;;;7.20;99.90;;;;;;4905268;29;20063;-81
2024/01/26 09:28:44;;;;;;;11.68;4.75;;;7.20;99.90;;;;;;4901985;29;20024;-81
2024/01/26 09:31:10;;;;;;;72.43;8.18;;;7.20;99.90;;;;;;4891724;29;20170;-80
2024/01/26 09:33:36;;;;;;;40.83;5.60;;;7.20;99.90;;;;;;4917136;29;20063;-81
2024/01/26 09:36:01;;;;;;;239.55;13.73;;;7.30;99.90;;;;;;4900502;29;20060;-80
2024/01/26 09:38:27;;;;;;;6.53;4.55;;;7.30;99.90;;;;;;4900212;29;20090;-81
2024/01/26 09:40:53;;;;;;;5.97;4.22;;;7.20;99.90;;;;;;4883062;29;20079;-81
2024/01/26 09:43:18;;;;;;;83.97;7.57;;;7.20;99.90;;;;;;4899020;29;20131;-80
2024/01/26 09:45:47;;;;;;;7.90;4.75;;;7.20;99.90;;;;;;4882779;29;20091;-80
2024/01/26 09:48:14;;;;;;;7.00;4.97;;;7.30;99.90;;;;;;4896220;29;20036;-80
2024/01/26 09:50:40;;;;;;;12.90;4.95;;;7.20;99.90;;;;;;4915872;29;20035;-82
2024/01/26 09:53:07;;;;;;;14.02;4.68;;;7.20;99.90;;;;;;4899721;29;20127;-81
2024/01/26 09:55:33;;;;;;;34.13;5.00;;;7.30;99.90;;;;;;4901460;29;20025;-81
2024/01/26 09:57:59;;;;;;;7.00;4.55;;;7.30;99.90;;;;;;4900569;29;20043;-81
2024/01/26 10:03:18;;;;;;;5.95;4.00;;;7.30;99.90;;;;;;4911835;29;20052;-81
2024/01/26 10:05:44;;;;;;;217.07;17.13;;;7.30;99.90;;;;;;4894072;29;20049;-81
2024/01/26 10:08:10;;;;;;;5.13;3.95;;;7.30;99.90;;;;;;4901619;29;20099;-80
2024/01/26 10:10:37;;;;;;;7.85;5.05;;;7.30;99.90;;;;;;4915277;29;20031;-80
2024/01/26 10:13:09;;;;;;;5.75;4.45;;;7.30;99.90;;;;;;4912986;29;20038;-81
2024/01/26 10:15:36;;;;;;;16.45;4.82;;;7.30;99.90;;;;;;4896090;29;20131;-81
2024/01/26 10:18:02;;;;;;;195.57;13.80;;;7.30;99.90;;;;;;4913306;29;20476;-79
2024/01/26 10:20:28;;;;;;;7.03;5.00;;;7.30;99.90;;;;;;4911139;29;20497;-80
2024/01/26 10:22:55;;;;;;;5.43;4.18;;;7.30;99.90;;;;;;4898833;29;20127;-80
2024/01/26 10:25:20;;;;;;;6.78;4.68;;;7.30;99.90;;;;;;4890922;29;20036;-80
2024/01/26 10:27:46;;;;;;;5.32;4.03;;;7.40;99.90;;;;;;4893575;29;20064;-80
2024/01/26 10:30:13;;;;;;;15.43;4.30;;;7.40;99.90;;;;;;4912410;29;20466;-80
2024/01/26 10:32:40;;;;;;;7.72;4.30;;;7.40;99.90;;;;;;4894179;29;20035;-80
2024/01/26 10:35:07;;;;;;;5.60;3.65;;;7.40;99.90;;;;;;4895677;29;20064;-80
2024/01/26 10:37:34;;;;;;;6.20;3.92;;;7.40;99.90;;;;;;4897977;29;20036;-80
2024/01/26 10:40:04;;;;;;;4.57;3.92;;;7.40;99.90;;;;;;4912916;29;20409;-80
2024/01/26 10:42:30;;;;;;;4.53;3.65;;;7.40;99.90;;;;;;4898177;29;20433;-80
2024/01/26 10:44:58;;;;;;;21.33;4.38;;;7.50;99.90;;;;;;4913905;29;20397;-80
2024/01/26 10:47:26;;;;;;;6.40;3.80;;;7.50;99.90;;;;;;4917603;29;20159;-79
2024/01/26 10:49:56;;;;;;;7.32;3.58;;;7.50;99.90;;;;;;4915075;29;20024;-80
2024/01/26 10:52:22;;;;;;;4.00;3.33;;;7.50;99.90;;;;;;4922089;29;20523;-80
2024/01/26 10:54:50;;;;;;;268.27;18.92;;;7.50;99.90;;;;;;4912440;29;20102;-79
2024/01/26 10:57:19;;;;;;;4.72;3.28;;;7.60;99.90;;;;;;4919319;29;20067;-81
2024/01/26 10:59:45;;;;;;;6.50;3.13;;;7.60;99.90;;;;;;4904096;29;20127;-79
2024/01/26 11:02:33;;;;;;;3.50;3.00;;;7.60;99.90;;;;;;4916865;29;20035;-80
2024/01/26 11:05:02;;;;;;;9.10;3.30;;;7.70;99.90;;;;;;4913781;29;20090;-80
2024/01/26 11:07:31;;;;;;;3.15;2.80;;;7.70;99.90;;;;;;4919591;29;20028;-80
2024/01/26 11:10:05;;;;;;;2.78;2.58;;;7.80;99.90;;;;;;4912046;29;20045;-80
2024/01/26 11:12:34;;;;;;;3.03;2.60;;;7.80;99.90;;;;;;4901191;29;20036;-79
2024/01/26 11:15:08;;;;;;;3.05;2.30;;;7.80;99.90;;;;;;4916980;29;20500;-79
2024/01/26 11:17:44;;;;;;;2.55;2.22;;;7.80;99.90;;;;;;4915922;29;20047;-80
2024/01/26 11:20:20;;;;;;;;;;;7.80;99.90;;;;;;4914944;29;20462;-79
2024/01/26 11:22:57;;;;;;;3.33;2.00;;;7.80;99.90;;;;;;4919881;29;19938;-80
2024/01/26 11:25:23;;;;;;;3.00;1.67;;;7.80;99.90;;;;;;4916105;29;20628;-80
2024/01/26 11:27:58;;;;;;;2.38;2.17;;;7.80;99.90;;;;;;4914062;29;20067;-80
2024/01/26 11:30:25;;;;;;;2.15;1.95;;;7.80;99.90;;;;;;4915388;29;20511;-80
2024/01/26 11:32:51;;;;;;;2.75;1.92;;;7.80;99.90;;;;;;4898845;29;20052;-80
2024/01/26 11:35:18;;;;;;;1.85;1.75;;;7.80;99.90;;;;;;4918492;29;20545;-81
2024/01/26 11:37:45;;;;;;;4.13;1.63;;;7.90;99.90;;;;;;4915992;29;20044;-79
2024/01/26 11:40:11;;;;;;;7.70;2.13;;;7.80;99.90;;;;;;4912026;29;20047;-79
2024/01/26 11:42:37;;;;;;;34.53;3.53;;;7.80;99.90;;;;;;4918483;29;20481;-81
2024/01/26 11:45:16;;;;;;;2.22;1.90;;;7.80;99.90;;;;;;4898735;29;20068;-81
2024/01/26 11:47:42;;;;;;;1.92;1.83;;;7.80;99.90;;;;;;4897015;29;20035;-80
2024/01/26 11:50:10;;;;;;;2.15;1.90;;;7.80;99.90;;;;;;4905973;29;20048;-80
2024/01/26 11:52:36;;;;;;;2.92;2.40;;;7.80;99.90;;;;;;4912711;29;20148;-81
2024/01/26 11:55:03;;;;;;;8.43;2.63;;;7.80;99.90;;;;;;4914604;29;20701;-80
2024/01/26 11:57:30;;;;;;;2.42;2.00;;;7.80;99.90;;;;;;4892222;29;20054;-80
2024/01/26 11:59:59;;;;;;;3.03;1.95;;;7.80;99.90;;;;;;4921709;29;20519;-81
2024/01/26 12:02:25;;;;;;;2.45;2.15;;;7.80;99.90;;;;;;4918818;29;20039;-81
2024/01/26 12:04:51;;;;;;;3.22;2.20;;;7.80;99.90;;;;;;4908508;29;20041;-81
2024/01/26 12:07:17;;;;;;;2.55;2.08;;;7.90;99.90;;;;;;4916642;29;20033;-82
2024/01/26 12:09:44;;;;;;;7.50;2.75;;;7.90;99.90;;;;;;4886576;29;20115;-80
2024/01/26 12:12:10;;;;;;;2.30;2.10;;;7.90;99.90;;;;;;4916514;29;20024;-81
2024/01/26 12:14:37;;;;;;;2.53;2.10;;;8.00;99.90;;;;;;4908754;29;20124;-81
2024/01/26 12:17:03;;;;;;;4.10;2.03;;;8.00;99.90;;;;;;4917927;29;20068;-80
2024/01/26 12:19:29;;;;;;;2.80;1.60;;;8.00;99.90;;;;;;4916849;29;20050;-80
2024/01/26 12:21:57;;;;;;;2.05;1.88;;;8.00;99.90;;;;;;4924246;29;20024;-81
2024/01/26 12:24:23;;;;;;;1.98;1.77;;;8.00;99.90;;;;;;4922886;29;20028;-80
2024/01/26 12:26:50;;;;;;;3.25;1.90;;;8.00;99.90;;;;;;4920891;29;20123;-82
2024/01/26 12:29:16;;;;;;;1.67;1.48;;;8.00;99.90;;;;;;4911104;29;20485;-82
2024/01/26 12:31:42;;;;;;;2.65;1.58;;;8.00;99.90;;;;;;4887986;29;20027;-82
2024/01/26 12:34:12;;;;;;;11.48;1.83;;;8.00;99.90;;;;;;4905892;29;20473;-82
2024/01/26 12:36:38;;;;;;;14.95;1.83;;;7.90;99.90;;;;;;4910907;29;20044;-81
2024/01/26 12:39:04;;;;;;;2.45;1.38;;;7.90;99.90;;;;;;4887039;29;20032;-81
2024/01/26 12:41:31;;;;;;;3.33;1.38;;;7.90;99.90;;;;;;4902173;29;20417;-81
2024/01/26 12:43:57;;;;;;;2.25;1.13;;;7.90;99.90;;;;;;4906559;29;20048;-81
2024/01/26 12:46:23;;;;;;;12.15;2.05;;;7.80;99.90;;;;;;4909259;29;20051;-82
2024/01/26 12:48:48;;;;;;;2.05;1.35;;;7.80;99.90;;;;;;4910975;29;20020;-81